createdAt,value
2023-05-21T00:03:56.498Z,101102.54
2023-05-21T00:08:59.122Z,101092.55
2023-05-21T00:14:01.697Z,101091.23
2023-05-21T00:19:04.340Z,101095.88
2023-05-21T00:24:07.455Z,101098.33
2023-05-21T00:29:10.004Z,101105.02
2023-05-21T00:34:13.724Z,101110.80
2023-05-21T00:39:16.351Z,101111.48
2023-05-21T00:44:19.598Z,101103.90
2023-05-21T00:49:24.353Z,101104.38
2023-05-21T00:54:28.033Z,101105.88
2023-05-21T00:59:32.185Z,101105.33
2023-05-21T01:04:35.427Z,101100.75
2023-05-21T01:09:39.341Z,101098.52
2023-05-21T01:14:42.605Z,101090.55
2023-05-21T01:19:45.266Z,101088.84
2023-05-21T01:24:51.111Z,101079.94
2023-05-21T01:29:53.901Z,101079.30
2023-05-21T01:35:04.435Z,101077.35
2023-05-21T01:40:33.238Z,101080.08
2023-05-21T01:45:39.699Z,101080.61
2023-05-21T01:50:45.818Z,101088.18
2023-05-21T01:55:48.689Z,101088.17
2023-05-21T02:00:51.746Z,101087.10
2023-05-21T02:05:55.598Z,101084.81
2023-05-21T02:10:58.232Z,101075.45
2023-05-21T02:16:01.533Z,101077.25
2023-05-21T02:21:04.128Z,101076.27
2023-05-21T02:26:06.683Z,101076.08
2023-05-21T02:31:09.225Z,101077.98
2023-05-21T02:36:15.509Z,101084.58
2023-05-21T02:41:18.108Z,101085.20
2023-05-21T02:46:20.776Z,101087.45
2023-05-21T02:51:23.460Z,101080.05
2023-05-21T02:56:26.050Z,101074.21
2023-05-21T03:01:28.599Z,101074.83
2023-05-21T03:06:32.576Z,101079.09
2023-05-21T03:11:35.067Z,101084.49
2023-05-21T03:16:38.086Z,101085.42
2023-05-21T03:21:41.705Z,101082.73
2023-05-21T03:26:44.305Z,101083.44
2023-05-21T03:31:46.964Z,101080.60
2023-05-21T03:36:49.680Z,101078.24
2023-05-21T03:41:52.205Z,101071.73
2023-05-21T03:46:54.718Z,101063.69
2023-05-21T03:51:57.528Z,101064.04
2023-05-21T03:57:00.109Z,101064.44
2023-05-21T04:02:03.029Z,101066.77
2023-05-21T04:07:05.562Z,101070.05
2023-05-21T04:12:08.746Z,101070.41
2023-05-21T04:17:12.561Z,101068.05
2023-05-21T04:22:15.167Z,101068.52
2023-05-21T04:27:17.727Z,101068.69
2023-05-21T04:32:20.795Z,101068.23
2023-05-21T04:37:26.115Z,101066.56
2023-05-21T04:42:29.995Z,101061.56
2023-05-21T04:47:35.827Z,101058.73
2023-05-21T04:52:40.126Z,101057.30
2023-05-21T04:57:42.617Z,101055.14
2023-05-21T05:07:48.111Z,101061.04
2023-05-21T05:12:50.979Z,101065.69
2023-05-21T05:17:54.580Z,101073.61
2023-05-21T05:22:57.333Z,101077.70
2023-05-21T05:27:59.966Z,101077.46
2023-05-21T05:33:02.574Z,101079.20
2023-05-21T05:38:05.711Z,101081.09
2023-05-21T05:43:08.948Z,101079.20
2023-05-21T05:48:12.066Z,101081.02
2023-05-21T05:53:14.674Z,101078.14
2023-05-21T05:58:17.269Z,101079.48
2023-05-21T06:03:19.965Z,101078.58
2023-05-21T06:08:23.318Z,101073.33
2023-05-21T06:13:25.945Z,101073.52
2023-05-21T06:18:28.465Z,101069.88
2023-05-21T06:23:32.576Z,101065.11
2023-05-21T06:28:36.289Z,101062.17
2023-05-21T06:33:38.963Z,101064.92
2023-05-21T06:38:42.707Z,101064.09
2023-05-21T06:43:45.382Z,101061.23
2023-05-21T06:48:50.024Z,101059.48
2023-05-21T06:53:52.919Z,101057.05
2023-05-21T06:58:55.559Z,101054.41
2023-05-21T07:03:58.294Z,101054.88
2023-05-21T07:09:02.159Z,101052.04
2023-05-21T07:14:04.794Z,101052.21
2023-05-21T07:19:07.475Z,101046.40
2023-05-21T07:24:10.119Z,101054.17
2023-05-21T07:29:12.760Z,101054.09
2023-05-21T07:34:15.882Z,101054.92
2023-05-21T07:39:18.434Z,101056.36
2023-05-21T07:44:20.930Z,101049.85
2023-05-21T07:49:23.597Z,101045.84
2023-05-21T07:54:26.331Z,101041.17
2023-05-21T07:59:28.971Z,101035.71
2023-05-21T08:04:31.826Z,101030.88
2023-05-21T08:09:34.521Z,101030.94
2023-05-21T08:14:37.054Z,101024.36
2023-05-21T08:19:39.650Z,101020.45
2023-05-21T08:24:42.222Z,101018.70
2023-05-21T08:29:44.859Z,101013.21
2023-05-21T08:34:47.397Z,101002.69
2023-05-21T08:39:49.939Z,100997.53
2023-05-21T08:44:59.284Z,100995.84
2023-05-21T08:50:05.501Z,100994.09
2023-05-21T08:55:09.022Z,100991.48
2023-05-21T09:00:12.050Z,100988.85
2023-05-21T09:05:15.459Z,100984.15
2023-05-21T09:10:21.679Z,100982.34
2023-05-21T09:15:24.476Z,100981.02
2023-05-21T09:20:28.245Z,100976.24
2023-05-21T09:25:31.635Z,100977.36
2023-05-21T09:30:36.102Z,100979.10
2023-05-21T09:35:46.246Z,100968.31
2023-05-21T09:40:48.782Z,100962.23
2023-05-21T09:45:56.919Z,100956.95
2023-05-21T09:51:17.117Z,100951.49
2023-05-21T09:56:24.867Z,100949.16
2023-05-21T10:01:30.799Z,100943.05
2023-05-21T10:06:43.142Z,100936.10
2023-05-21T10:11:49.061Z,100936.40
2023-05-21T10:16:54.077Z,100939.13
2023-05-21T10:21:57.107Z,100935.80
2023-05-21T10:27:01.775Z,100927.76
2023-05-21T10:32:05.900Z,100924.86
2023-05-21T10:37:10.687Z,100922.91
2023-05-21T10:42:35.578Z,100924.34
2023-05-21T10:48:01.706Z,100910.26
2023-05-21T10:53:36.601Z,100903.08
2023-05-21T10:59:05.130Z,100896.74
2023-05-21T11:04:09.763Z,100887.42
2023-05-21T11:09:13.674Z,100882.98
2023-05-21T11:14:35.292Z,100884.87
2023-05-21T11:19:39.212Z,100887.73
2023-05-21T11:24:43.074Z,100881.66
2023-05-21T11:29:47.451Z,100874.94
2023-05-21T11:34:50.412Z,100872.27
2023-05-21T11:39:54.582Z,100877.43
2023-05-21T11:44:59.152Z,100876.70
2023-05-21T11:50:04.468Z,100871.13
2023-05-21T11:55:07.479Z,100857.73
2023-05-21T12:00:15.220Z,100858.85
2023-05-21T12:05:17.973Z,100855.68
2023-05-21T12:10:22.256Z,100856.27
2023-05-21T12:15:26.738Z,100854.02
2023-05-21T12:20:30.028Z,100850.16
2023-05-21T12:25:35.639Z,100850.54
2023-05-21T12:30:38.346Z,100846.89
2023-05-21T12:35:41.264Z,100842.30
2023-05-21T12:40:45.440Z,100837.18
2023-05-21T12:45:48.155Z,100840.02
2023-05-21T12:50:52.217Z,100833.10
2023-05-21T12:56:07.954Z,100832.70
2023-05-21T13:01:12.069Z,100830.27
2023-05-21T13:06:14.702Z,100825.98
2023-05-21T13:11:17.385Z,100818.77
2023-05-21T13:16:21.946Z,100812.42
2023-05-21T13:21:24.675Z,100810.98
2023-05-21T13:26:27.306Z,100804.70
2023-05-21T13:31:29.831Z,100802.92
2023-05-21T13:36:32.494Z,100797.04
2023-05-21T13:41:35.079Z,100795.47
2023-05-21T13:46:39.510Z,100788.03
2023-05-21T13:51:43.420Z,100788.02
2023-05-21T13:56:45.931Z,100783.64
2023-05-21T14:01:49.816Z,100777.81
2023-05-21T14:06:52.667Z,100769.10
2023-05-21T14:11:56.094Z,100765.34
2023-05-21T14:16:58.991Z,100759.02
2023-05-21T14:22:01.792Z,100761.61
2023-05-21T14:27:04.403Z,100763.48
2023-05-21T14:32:07.754Z,100758.48
2023-05-21T14:37:10.669Z,100760.42
2023-05-21T14:42:13.185Z,100759.98
2023-05-21T14:47:15.775Z,100752.55
2023-05-21T14:52:18.682Z,100747.31
2023-05-21T14:57:21.321Z,100746.36
2023-05-21T15:02:24.344Z,100742.98
2023-05-21T15:07:27.033Z,100736.09
2023-05-21T15:12:30.594Z,100733.57
2023-05-21T15:17:33.988Z,100730.66
2023-05-21T15:22:36.753Z,100724.78
2023-05-21T15:27:39.268Z,100728.88
2023-05-21T15:32:42.375Z,100727.34
2023-05-21T15:37:45.568Z,100728.67
2023-05-21T15:42:48.215Z,100726.13
2023-05-21T15:47:50.992Z,100724.05
2023-05-21T15:52:53.813Z,100723.34
2023-05-21T15:57:56.360Z,100720.88
2023-05-21T16:02:58.940Z,100719.27
2023-05-21T16:08:01.524Z,100715.09
2023-05-21T16:13:04.066Z,100712.86
2023-05-21T16:18:08.239Z,100706.92
2023-05-21T16:23:12.067Z,100705.15
2023-05-21T16:28:14.792Z,100696.61
2023-05-21T16:33:17.636Z,100699.38
2023-05-21T16:38:21.314Z,100702.26
2023-05-21T16:43:23.875Z,100697.81
2023-05-21T16:48:26.359Z,100699.12
2023-05-21T16:53:28.922Z,100699.30
2023-05-21T16:58:33.160Z,100700.00
2023-05-21T17:03:36.520Z,100702.65
2023-05-21T17:08:39.350Z,100701.10
2023-05-21T17:13:42.148Z,100702.01
2023-05-21T17:18:44.720Z,100703.05
2023-05-21T17:23:47.572Z,100697.45
2023-05-21T17:28:50.131Z,100699.91
2023-05-21T17:33:52.796Z,100696.77
2023-05-21T17:38:55.712Z,100702.52
2023-05-21T17:43:58.336Z,100702.59
2023-05-21T17:49:03.602Z,100697.52
2023-05-21T17:54:07.965Z,100696.55
2023-05-21T17:59:11.587Z,100696.52
2023-05-21T18:04:14.153Z,100698.63
2023-05-21T18:09:16.933Z,100700.08
2023-05-21T18:14:19.592Z,100701.11
2023-05-21T18:19:22.144Z,100705.13
2023-05-21T18:24:24.764Z,100708.73
2023-05-21T18:29:27.253Z,100715.95
2023-05-21T18:34:30.504Z,100715.51
2023-05-21T18:39:33.088Z,100717.23
2023-05-21T18:44:35.593Z,100728.94
2023-05-21T18:49:38.844Z,100731.10
2023-05-21T18:54:41.347Z,100738.05
2023-05-21T18:59:44.246Z,100735.35
2023-05-21T19:04:47.129Z,100728.25
2023-05-21T19:09:49.847Z,100734.04
2023-05-21T19:14:52.430Z,100734.05
2023-05-21T19:19:57.568Z,100737.55
2023-05-21T19:25:00.717Z,100738.03
2023-05-21T19:30:04.131Z,100735.90
2023-05-21T19:35:07.702Z,100738.22
2023-05-21T19:40:10.633Z,100732.02
2023-05-21T19:45:15.423Z,100733.23
2023-05-21T19:50:19.026Z,100731.98
2023-05-21T19:55:22.642Z,100729.16
2023-05-21T20:00:27.300Z,100726.45
2023-05-21T20:05:29.816Z,100722.08
2023-05-21T20:10:32.602Z,100719.58
2023-05-21T20:15:36.119Z,100716.32
2023-05-21T20:20:39.249Z,100720.61
2023-05-21T20:25:42.118Z,100715.66
2023-05-21T20:31:02.460Z,100719.01
2023-05-21T20:36:05.460Z,100724.25
2023-05-21T20:41:08.025Z,100730.41
2023-05-21T20:46:10.954Z,100736.80
2023-05-21T20:51:13.874Z,100744.16
2023-05-21T20:56:21.770Z,100749.08
2023-05-21T21:01:30.353Z,100749.45
2023-05-21T21:06:33.740Z,100748.54
2023-05-21T21:11:36.795Z,100749.86
2023-05-21T21:16:39.377Z,100749.56
2023-05-21T21:21:42.009Z,100745.84
2023-05-21T21:26:44.529Z,100742.39
2023-05-21T21:31:47.565Z,100740.06
2023-05-21T21:36:50.893Z,100741.04
2023-05-21T21:41:53.675Z,100739.44
2023-05-21T21:46:56.228Z,100742.52
2023-05-21T21:51:58.805Z,100741.98
2023-05-21T21:57:01.353Z,100745.42
2023-05-21T22:02:04.404Z,100753.33
2023-05-21T22:07:10.681Z,100752.30
2023-05-21T22:12:13.740Z,100750.70
2023-05-21T22:17:17.724Z,100747.99
2023-05-21T22:22:20.261Z,100739.84
2023-05-21T22:27:22.799Z,100738.59
2023-05-21T22:32:25.410Z,100739.23
2023-05-21T22:37:28.325Z,100740.60
2023-05-21T22:42:30.897Z,100740.69
2023-05-21T22:47:33.639Z,100737.14
2023-05-21T22:52:38.014Z,100733.70
2023-05-21T22:57:40.720Z,100730.05
2023-05-21T23:02:43.241Z,100725.34
2023-05-21T23:07:45.995Z,100724.73
2023-05-21T23:12:48.516Z,100726.84
2023-05-21T23:17:51.105Z,100722.89
2023-05-21T23:22:53.742Z,100715.30
2023-05-21T23:27:56.244Z,100714.04
2023-05-21T23:32:59.425Z,100714.27
2023-05-21T23:38:02.116Z,100716.30
2023-05-21T23:43:04.862Z,100722.52
2023-05-21T23:48:07.740Z,100717.44
2023-05-21T23:53:10.559Z,100715.33
2023-05-21T23:58:13.098Z,100717.55
